createdAt,value
2023-04-15T00:00:25.255Z,99457.22
2023-04-15T00:03:45.318Z,99454.84
2023-04-15T00:09:09.699Z,99444.94
2023-04-15T00:12:16.676Z,99447.38
2023-04-15T00:14:47.933Z,99438.00
2023-04-15T00:17:23.054Z,99436.59
2023-04-15T00:19:54.949Z,99432.72
2023-04-15T00:22:24.393Z,99431.69
2023-04-15T00:25:02.397Z,99425.38
2023-04-15T00:28:00.389Z,99424.34
2023-04-15T00:30:27.536Z,99423.56
2023-04-15T00:33:08.734Z,99413.94
2023-04-15T00:35:51.309Z,99408.00
2023-04-15T00:38:21.094Z,99417.22
2023-04-15T00:40:58.265Z,99407.63
2023-04-15T00:43:40.169Z,99413.69
2023-04-15T00:46:11.535Z,99406.91
2023-04-15T00:51:30.353Z,99404.63
2023-04-15T00:57:13.140Z,99399.72
2023-04-15T00:59:51.545Z,99407.84
2023-04-15T01:02:58.699Z,99393.31
2023-04-15T01:05:30.969Z,99389.84
2023-04-15T01:08:00.695Z,99376.75
2023-04-15T01:10:31.641Z,99387.75
2023-04-15T01:13:09.147Z,99385.94
2023-04-15T01:15:43.060Z,99386.75
2023-04-15T01:18:14.568Z,99381.19
2023-04-15T01:21:12.081Z,99392.38
2023-04-15T01:23:45.726Z,99391.66
2023-04-15T01:26:33.764Z,99384.34
2023-04-15T01:29:13.659Z,99384.34
2023-04-15T01:32:14.793Z,99378.22
2023-04-15T01:34:43.668Z,99364.94
2023-04-15T01:37:17.203Z,99362.94
2023-04-15T01:39:50.779Z,99361.16
2023-04-15T01:42:17.950Z,99357.50
2023-04-15T01:45:04.801Z,99362.31
2023-04-15T01:47:48.524Z,99366.50
2023-04-15T01:50:21.809Z,99360.84
2023-04-15T01:53:17.051Z,99348.78
2023-04-15T01:55:51.989Z,99343.09
2023-04-15T01:58:19.746Z,99348.56
2023-04-15T02:00:48.624Z,99347.75
2023-04-15T02:03:21.920Z,99337.69
2023-04-15T02:08:59.307Z,99344.16
2023-04-15T02:11:32.531Z,99351.22
2023-04-15T02:13:59.488Z,99347.81
2023-04-15T02:16:29.818Z,99342.72
2023-04-15T02:19:30.720Z,99346.63
2023-04-15T02:22:01.719Z,99350.47
2023-04-15T02:24:40.819Z,99351.06
2023-04-15T02:27:22.800Z,99356.34
2023-04-15T02:30:00.345Z,99342.72
2023-04-15T02:32:27.214Z,99348.56
2023-04-15T02:34:55.746Z,99349.03
2023-04-15T02:37:23.879Z,99354.25
2023-04-15T02:39:50.933Z,99349.31
2023-04-15T02:42:18.750Z,99350.50
2023-04-15T02:44:45.434Z,99350.59
2023-04-15T02:47:12.401Z,99340.81
2023-04-15T02:49:40.340Z,99344.84
2023-04-15T02:52:07.149Z,99350.50
2023-04-15T02:54:34.411Z,99337.63
2023-04-15T02:57:01.812Z,99342.94
2023-04-15T02:59:28.545Z,99329.09
2023-04-15T03:01:56.757Z,99330.00
2023-04-15T03:04:23.734Z,99324.69
2023-04-15T03:06:50.359Z,99323.50
2023-04-15T03:09:17.298Z,99330.25
2023-04-15T03:11:43.943Z,99317.66
2023-04-15T03:14:11.554Z,99316.34
2023-04-15T03:16:42.828Z,99322.41
2023-04-15T03:19:10.123Z,99321.41
2023-04-15T03:21:39.289Z,99326.91
2023-04-15T03:24:06.383Z,99318.75
2023-04-15T03:26:33.206Z,99321.03
2023-04-15T03:29:04.136Z,99319.13
2023-04-15T03:31:31.122Z,99312.63
2023-04-15T03:34:00.512Z,99329.38
2023-04-15T03:36:29.370Z,99319.84
2023-04-15T03:39:02.649Z,99321.03
2023-04-15T03:41:30.995Z,99324.06
2023-04-15T03:44:05.080Z,99329.38
2023-04-15T03:46:38.478Z,99325.53
2023-04-15T03:49:16.428Z,99324.50
2023-04-15T03:51:48.049Z,99325.53
2023-04-15T03:54:17.611Z,99321.72
2023-04-15T03:56:57.662Z,99325.94
2023-04-15T03:59:39.217Z,99329.84
2023-04-15T04:02:12.673Z,99325.78
2023-04-15T04:04:39.796Z,99328.09
2023-04-15T04:07:14.865Z,99330.88
2023-04-15T04:09:48.265Z,99328.59
2023-04-15T04:12:18.276Z,99324.94
2023-04-15T04:14:45.368Z,99325.94
2023-04-15T04:17:18.099Z,99322.28
2023-04-15T04:22:33.302Z,99315.34
2023-04-15T04:27:59.510Z,99319.44
2023-04-15T04:30:49.731Z,99315.41
2023-04-15T04:36:12.054Z,99319.00
2023-04-15T04:38:39.442Z,99312.44
2023-04-15T04:41:22.479Z,99322.16
2023-04-15T04:43:55.096Z,99325.06
2023-04-15T04:46:24.017Z,99321.78
2023-04-15T04:52:36.256Z,99335.16
2023-04-15T04:55:02.918Z,99325.38
2023-04-15T04:57:36.124Z,99322.75
2023-04-15T05:00:04.972Z,99325.81
2023-04-15T05:02:37.293Z,99325.44
2023-04-15T05:05:19.495Z,99332.00
2023-04-15T05:07:52.797Z,99325.69
2023-04-15T05:10:42.424Z,99334.19
2023-04-15T05:13:19.079Z,99325.91
2023-04-15T05:16:09.225Z,99330.22
2023-04-15T05:18:45.194Z,99338.38
2023-04-15T05:21:15.866Z,99341.28
2023-04-15T05:23:47.409Z,99344.13
2023-04-15T05:26:17.858Z,99337.25
2023-04-15T05:28:48.253Z,99338.63
2023-04-15T05:31:30.059Z,99340.91
2023-04-15T05:33:57.790Z,99344.56
2023-04-15T05:36:25.998Z,99344.56
2023-04-15T05:38:53.885Z,99337.81
2023-04-15T05:41:20.955Z,99335.09
2023-04-15T05:43:48.880Z,99338.88
2023-04-15T05:46:17.283Z,99337.88
2023-04-15T05:48:45.873Z,99335.84
2023-04-15T05:51:23.135Z,99338.72
2023-04-15T05:57:16.602Z,99345.84
2023-04-15T06:03:07.467Z,99343.19
2023-04-15T06:05:51.175Z,99344.69
2023-04-15T06:08:49.497Z,99347.31
2023-04-15T06:11:23.437Z,99351.00
2023-04-15T06:14:17.400Z,99350.00
2023-04-15T06:17:32.652Z,99355.13
2023-04-15T06:20:20.326Z,99356.81
2023-04-15T06:23:17.769Z,99347.09
2023-04-15T06:25:49.552Z,99354.38
2023-04-15T06:28:37.354Z,99352.81
2023-04-15T06:31:12.974Z,99355.84
2023-04-15T06:33:54.493Z,99362.34
2023-04-15T06:36:38.595Z,99354.91
2023-04-15T06:43:07.155Z,99352.09
2023-04-15T06:49:09.364Z,99345.75
2023-04-15T06:52:22.804Z,99350.91
2023-04-15T06:55:04.269Z,99350.31
2023-04-15T07:00:36.280Z,99344.03
2023-04-15T07:03:19.886Z,99340.75
2023-04-15T07:08:47.486Z,99346.47
2023-04-15T07:11:38.243Z,99349.50
2023-04-15T07:15:20.945Z,99343.41
2023-04-15T07:17:50.430Z,99340.53
2023-04-15T07:20:44.383Z,99340.34
2023-04-15T07:23:15.580Z,99350.13
2023-04-15T07:25:52.264Z,99344.44
2023-04-15T07:28:20.364Z,99334.47
2023-04-15T07:30:49.857Z,99349.06
2023-04-15T07:33:19.318Z,99343.69
2023-04-15T07:35:47.271Z,99347.78
2023-04-15T07:38:19.681Z,99343.13
2023-04-15T07:40:51.431Z,99339.66
2023-04-15T07:43:19.286Z,99350.03
2023-04-15T07:45:49.030Z,99349.31
2023-04-15T07:48:23.407Z,99351.94
2023-04-15T07:50:54.017Z,99353.19
2023-04-15T07:53:22.990Z,99349.91
2023-04-15T07:55:52.324Z,99342.50
2023-04-15T07:58:23.566Z,99352.34
2023-04-15T08:00:55.781Z,99341.38
2023-04-15T08:03:23.696Z,99350.53
2023-04-15T08:05:51.387Z,99342.22
2023-04-15T08:08:25.422Z,99347.56
2023-04-15T08:10:53.292Z,99348.78
2023-04-15T08:13:24.448Z,99345.31
2023-04-15T08:16:15.176Z,99345.69
2023-04-15T08:18:42.029Z,99352.22
2023-04-15T08:21:09.472Z,99348.59
2023-04-15T08:23:36.938Z,99346.09
2023-04-15T08:26:04.092Z,99349.00
2023-04-15T08:28:32.986Z,99349.38
2023-04-15T08:31:07.532Z,99344.50
2023-04-15T08:33:34.285Z,99345.13
2023-04-15T08:36:02.427Z,99351.91
2023-04-15T08:38:29.121Z,99351.75
2023-04-15T08:41:00.826Z,99350.66
2023-04-15T08:43:34.653Z,99350.72
2023-04-15T08:46:01.972Z,99352.78
2023-04-15T08:48:38.644Z,99344.00
2023-04-15T08:51:05.468Z,99337.88
2023-04-15T08:53:32.625Z,99345.00
2023-04-15T08:56:04.103Z,99353.00
2023-04-15T08:58:33.409Z,99354.03
2023-04-15T09:01:00.491Z,99349.94
2023-04-15T09:03:31.729Z,99353.84
2023-04-15T09:05:58.839Z,99354.25
2023-04-15T09:08:25.640Z,99354.47
2023-04-15T09:10:52.691Z,99344.03
2023-04-15T09:13:19.383Z,99348.53
2023-04-15T09:15:46.101Z,99353.84
2023-04-15T09:18:16.043Z,99352.03
2023-04-15T09:20:42.959Z,99335.63
2023-04-15T09:23:17.609Z,99353.44
2023-04-15T09:25:44.475Z,99357.31
2023-04-15T09:28:11.467Z,99353.84
2023-04-15T09:30:38.113Z,99357.13
2023-04-15T09:33:11.111Z,99349.97
2023-04-15T09:35:38.030Z,99359.41
2023-04-15T09:38:09.977Z,99358.38
2023-04-15T09:40:41.093Z,99364.13
2023-04-15T09:43:09.276Z,99364.53
2023-04-15T09:45:38.798Z,99365.75
2023-04-15T09:48:29.243Z,99366.38
2023-04-15T09:50:59.589Z,99688.81
2023-04-15T09:53:26.497Z,99696.97
2023-04-15T09:55:57.946Z,99707.88
2023-04-15T09:58:26.493Z,99703.78
2023-04-15T10:00:54.356Z,99714.63
2023-04-15T10:03:32.370Z,99723.88
2023-04-15T10:06:00.553Z,99725.78
2023-04-15T10:08:29.057Z,99726.00
2023-04-15T10:10:59.032Z,99729.19
2023-04-15T10:13:29.477Z,99728.28
2023-04-15T10:16:03.187Z,99731.56
2023-04-15T10:18:33.033Z,99730.53
2023-04-15T10:21:02.249Z,99725.19
2023-04-15T10:23:29.018Z,99730.94
2023-04-15T10:25:56.226Z,99729.94
2023-04-15T10:28:23.442Z,99734.28
2023-04-15T10:30:50.291Z,99738.78
2023-04-15T10:33:20.582Z,99740.03
2023-04-15T10:35:49.117Z,99741.88
2023-04-15T10:38:43.932Z,99736.78
2023-04-15T10:41:22.827Z,99734.91
2023-04-15T10:43:54.339Z,99745.78
2023-04-15T10:46:36.019Z,99744.78
2023-04-15T10:49:11.647Z,99751.78
2023-04-15T10:51:42.703Z,99745.84
2023-04-15T10:54:17.649Z,99748.06
2023-04-15T10:56:51.806Z,99755.66
2023-04-15T10:59:18.905Z,99756.91
2023-04-15T11:02:02.734Z,99761.22
2023-04-15T11:04:51.519Z,99762.41
2023-04-15T11:07:37.419Z,99769.84
2023-04-15T11:10:25.702Z,99765.53
2023-04-15T11:13:03.060Z,99764.13
2023-04-15T11:15:40.482Z,99767.41
2023-04-15T11:18:17.963Z,99769.22
2023-04-15T11:20:50.964Z,99765.34
2023-04-15T11:23:20.007Z,99760.63
2023-04-15T11:25:48.962Z,99764.72
2023-04-15T11:28:16.501Z,99767.81
2023-04-15T11:30:45.825Z,99765.75
2023-04-15T11:33:18.898Z,99764.34
2023-04-15T11:35:55.047Z,99772.97
2023-04-15T11:38:22.880Z,99775.44
2023-04-15T11:40:52.391Z,99774.19
2023-04-15T11:43:23.855Z,99780.38
2023-04-15T11:45:53.975Z,99776.06
2023-04-15T11:48:35.148Z,99785.91
2023-04-15T11:51:04.222Z,99777.28
2023-04-15T11:53:44.211Z,99776.47
2023-04-15T11:56:18.802Z,99782.84
2023-04-15T11:58:52.026Z,99786.34
2023-04-15T12:01:19.834Z,99785.09
2023-04-15T12:03:49.593Z,99793.94
2023-04-15T12:06:27.884Z,99783.69
2023-04-15T12:09:07.214Z,99786.56
2023-04-15T12:11:33.977Z,99793.16
2023-04-15T12:14:07.595Z,99800.69
2023-04-15T12:16:49.121Z,99796.78
2023-04-15T12:19:25.831Z,99796.38
2023-04-15T12:21:54.745Z,99796.78
2023-04-15T12:24:25.621Z,99798.22
2023-04-15T12:26:54.572Z,99803.78
2023-04-15T12:29:26.773Z,99808.47
2023-04-15T12:31:55.745Z,99814.44
2023-04-15T12:34:32.471Z,99807.53
2023-04-15T12:37:01.946Z,99819.19
2023-04-15T12:39:31.310Z,99815.13
2023-04-15T12:42:00.367Z,99823.75
2023-04-15T12:44:28.136Z,99823.56
2023-04-15T12:46:55.906Z,99821.50
2023-04-15T12:49:23.703Z,99831.56
2023-04-15T12:51:52.765Z,99833.00
2023-04-15T12:54:19.970Z,99829.75
2023-04-15T12:56:47.984Z,99830.53
2023-04-15T12:59:16.123Z,99840.00
2023-04-15T13:01:43.160Z,99844.13
2023-04-15T13:04:10.116Z,99847.81
2023-04-15T13:06:38.528Z,99857.28
2023-04-15T13:09:06.205Z,99852.16
2023-04-15T13:11:34.162Z,99856.84
2023-04-15T13:14:02.530Z,99855.63
2023-04-15T13:17:16.091Z,99859.75
2023-04-15T13:19:51.562Z,99855.25
2023-04-15T13:22:18.998Z,99854.84
2023-04-15T13:24:45.862Z,99853.19
2023-04-15T13:27:14.039Z,99858.97
2023-04-15T13:29:41.157Z,99860.16
2023-04-15T13:32:07.871Z,99859.94
2023-04-15T13:34:34.514Z,99859.91
2023-04-15T13:37:09.429Z,99862.63
2023-04-15T13:39:36.580Z,99869.19
2023-04-15T13:42:03.696Z,99878.84
2023-04-15T13:44:30.829Z,99879.66
2023-04-15T13:46:58.352Z,99882.16
2023-04-15T13:49:25.098Z,99888.31
2023-04-15T13:51:52.837Z,99892.25
2023-04-15T13:54:19.762Z,99892.66
2023-04-15T13:56:46.753Z,99897.84
2023-04-15T13:59:14.551Z,99898.44
2023-04-15T14:01:46.054Z,99914.03
2023-04-15T14:04:13.563Z,99915.28
2023-04-15T14:06:45.637Z,99914.88
2023-04-15T14:12:24.391Z,99921.03
2023-04-15T14:14:59.356Z,99918.38
2023-04-15T14:17:35.361Z,99930.72
2023-04-15T14:20:18.421Z,99928.06
2023-04-15T14:22:52.807Z,99929.25
2023-04-15T14:25:33.797Z,99932.78
2023-04-15T14:28:11.958Z,99938.34
2023-04-15T14:31:00.904Z,99939.31
2023-04-15T14:33:42.343Z,99945.50
2023-04-15T14:36:10.174Z,99943.47
2023-04-15T14:38:47.515Z,99947.78
2023-04-15T14:41:16.686Z,99947.97
2023-04-15T14:43:51.137Z,99954.31
2023-04-15T14:46:43.665Z,99962.34
2023-04-15T14:49:15.020Z,99970.34
2023-04-15T14:54:31.710Z,99979.00
2023-04-15T14:57:02.196Z,99988.03
2023-04-15T14:59:32.318Z,99987.00
2023-04-15T15:01:59.052Z,99986.81
2023-04-15T15:04:29.487Z,99993.19
2023-04-15T15:07:06.578Z,99995.06
2023-04-15T15:09:36.636Z,99997.91
2023-04-15T15:12:30.859Z,100005.75
2023-04-15T15:15:15.547Z,100006.59
2023-04-15T15:18:08.498Z,100010.50
2023-04-15T15:20:45.851Z,100012.97
2023-04-15T15:23:25.500Z,100013.00
2023-04-15T15:25:55.062Z,100018.56
2023-04-15T15:28:27.854Z,100023.09
2023-04-15T15:31:00.495Z,100022.88
2023-04-15T15:33:30.329Z,100022.56
2023-04-15T15:36:00.064Z,100024.63
2023-04-15T15:38:30.011Z,100020.34
2023-04-15T15:41:14.208Z,100022.97
2023-04-15T15:43:40.988Z,100027.50
2023-04-15T15:46:11.012Z,100028.13
2023-04-15T15:48:49.268Z,100024.41
2023-04-15T15:51:16.078Z,100027.34
2023-04-15T15:53:45.211Z,100023.78
2023-04-15T15:56:15.419Z,100024.59
2023-04-15T15:58:47.833Z,100034.09
2023-04-15T16:01:14.767Z,100038.41
2023-04-15T16:03:44.601Z,100041.50
2023-04-15T16:06:11.652Z,100045.81
2023-04-15T16:08:38.606Z,100042.69
2023-04-15T16:11:05.404Z,100043.53
2023-04-15T16:13:35.801Z,100054.22
2023-04-15T16:16:02.792Z,100054.81
2023-04-15T16:18:30.451Z,100063.41
2023-04-15T16:20:59.127Z,100060.47
2023-04-15T16:23:25.805Z,100053.72
2023-04-15T16:25:57.639Z,100059.06
2023-04-15T16:28:26.944Z,100066.84
2023-04-15T16:31:00.377Z,100072.41
2023-04-15T16:33:28.756Z,100070.38
2023-04-15T16:35:55.505Z,100080.72
2023-04-15T16:38:27.393Z,100071.25
2023-04-15T16:40:54.580Z,100085.59
2023-04-15T16:43:25.780Z,100086.22
2023-04-15T16:46:00.762Z,100094.72
2023-04-15T16:48:33.952Z,100093.84
2023-04-15T16:51:00.689Z,100100.69
2023-04-15T16:53:43.231Z,100098.03
2023-04-15T16:56:10.254Z,100097.22
2023-04-15T16:58:37.322Z,100103.91
2023-04-15T17:01:12.629Z,100106.56
2023-04-15T17:03:40.150Z,100113.47
2023-04-15T17:06:07.029Z,100114.75
2023-04-15T17:08:34.145Z,100114.94
2023-04-15T17:11:04.029Z,100117.16
2023-04-15T17:13:30.741Z,100122.91
2023-04-15T17:16:03.747Z,100119.03
2023-04-15T17:18:41.793Z,100125.97
2023-04-15T17:21:11.110Z,100128.88
2023-04-15T17:23:46.806Z,100135.44
2023-04-15T17:26:14.329Z,100140.56
2023-04-15T17:28:41.175Z,100143.78
2023-04-15T17:31:15.704Z,100145.03
2023-04-15T17:34:01.806Z,100146.22
2023-04-15T17:36:42.328Z,100147.25
2023-04-15T17:39:16.849Z,100131.00
2023-04-15T17:42:01.885Z,100126.03
2023-04-15T17:44:31.087Z,100130.19
2023-04-15T17:47:01.133Z,100134.84
2023-04-15T17:49:28.250Z,100136.88
2023-04-15T17:51:58.305Z,100133.63
2023-04-15T17:54:29.806Z,100143.94
2023-04-15T17:56:59.485Z,100147.66
2023-04-15T17:59:29.918Z,100151.47
2023-04-15T18:01:59.738Z,100159.09
2023-04-15T18:04:29.489Z,100148.63
2023-04-15T18:06:59.395Z,100160.97
2023-04-15T18:09:31.811Z,100164.66
2023-04-15T18:11:58.565Z,100168.06
2023-04-15T18:14:35.052Z,100167.97
2023-04-15T18:17:13.744Z,100172.28
2023-04-15T18:19:50.063Z,100175.13
2023-04-15T18:22:30.093Z,100176.84
2023-04-15T18:24:59.465Z,100180.69
2023-04-15T18:27:32.746Z,100183.34
2023-04-15T18:30:01.036Z,100186.97
2023-04-15T18:32:32.887Z,100200.38
2023-04-15T18:35:02.460Z,100197.66
2023-04-15T18:37:32.497Z,100210.16
2023-04-15T18:39:59.994Z,100208.09
2023-04-15T18:42:31.116Z,100210.38
2023-04-15T18:45:02.296Z,100218.38
2023-04-15T18:47:37.994Z,100221.47
2023-04-15T18:50:19.589Z,100221.47
2023-04-15T18:52:48.705Z,100232.47
2023-04-15T18:55:23.313Z,100236.31
2023-04-15T18:57:50.109Z,100236.31
2023-04-15T19:00:46.153Z,100247.06
2023-04-15T19:03:14.669Z,100240.47
2023-04-15T19:05:51.652Z,100250.28
2023-04-15T19:08:18.577Z,100247.19
2023-04-15T19:10:45.603Z,100257.41
2023-04-15T19:13:14.071Z,100257.09
2023-04-15T19:15:47.325Z,100253.72
2023-04-15T19:18:20.627Z,100262.75
2023-04-15T19:21:16.798Z,100264.66
2023-04-15T19:23:43.808Z,100270.38
2023-04-15T19:26:14.011Z,100276.34
2023-04-15T19:28:48.709Z,100278.38
2023-04-15T19:31:16.595Z,100274.69
2023-04-15T19:33:59.071Z,100284.13
2023-04-15T19:36:29.690Z,100285.31
2023-04-15T19:39:06.513Z,100290.56
2023-04-15T19:41:33.621Z,100292.59
2023-04-15T19:44:04.636Z,100296.31
2023-04-15T19:46:36.513Z,100299.19
2023-04-15T19:49:19.642Z,100300.84
2023-04-15T19:54:50.029Z,100300.34
2023-04-15T19:57:16.760Z,100300.47
2023-04-15T19:59:43.887Z,100302.03
2023-04-15T20:02:20.372Z,100305.19
2023-04-15T20:04:52.371Z,100315.41
2023-04-15T20:07:34.508Z,100316.66
2023-04-15T20:10:09.634Z,100319.22
2023-04-15T20:13:12.573Z,100317.03
2023-04-15T20:15:43.726Z,100313.19
2023-04-15T20:18:16.127Z,100326.34
2023-04-15T20:20:45.755Z,100321.38
2023-04-15T20:23:41.606Z,100318.28
2023-04-15T20:26:11.509Z,100327.19
2023-04-15T20:28:43.803Z,100331.03
2023-04-15T20:31:13.566Z,100324.63
2023-04-15T20:33:44.525Z,100328.88
2023-04-15T20:36:11.524Z,100327.31
2023-04-15T20:38:38.746Z,100331.63
2023-04-15T20:41:13.103Z,100339.97
2023-04-15T20:43:40.514Z,100338.31
2023-04-15T20:46:17.860Z,100346.63
2023-04-15T20:48:47.757Z,100340.06
2023-04-15T20:51:17.993Z,100331.78
2023-04-15T20:53:45.059Z,100351.50
2023-04-15T20:56:15.422Z,100345.91
2023-04-15T20:58:42.540Z,100343.41
2023-04-15T21:01:09.304Z,100343.63
2023-04-15T21:03:36.415Z,100351.88
2023-04-15T21:06:06.812Z,100353.28
2023-04-15T21:08:33.586Z,100341.28
2023-04-15T21:11:03.487Z,100356.28
2023-04-15T21:13:31.354Z,100344.38
2023-04-15T21:16:06.703Z,100349.84
2023-04-15T21:18:33.640Z,100352.41
2023-04-15T21:21:04.719Z,100351.38
2023-04-15T21:23:32.980Z,100356.28
2023-04-15T21:26:07.367Z,100357.31
2023-04-15T21:28:34.630Z,100360.63
2023-04-15T21:31:01.502Z,100360.78
2023-04-15T21:33:34.223Z,100367.16
2023-04-15T21:36:02.747Z,100377.72
2023-04-15T21:38:35.515Z,100376.00
2023-04-15T21:41:09.834Z,100378.47
2023-04-15T21:43:37.413Z,100383.81
2023-04-15T21:46:23.647Z,100386.22
2023-04-15T21:48:55.463Z,100398.00
2023-04-15T21:51:26.744Z,100409.06
2023-04-15T21:53:57.871Z,100413.72
2023-04-15T21:56:25.422Z,100425.00
2023-04-15T21:58:57.808Z,100428.31
2023-04-15T22:01:27.616Z,100431.91
2023-04-15T22:03:54.962Z,100436.88
2023-04-15T22:06:22.876Z,100435.19
2023-04-15T22:08:57.328Z,100441.13
2023-04-15T22:11:28.253Z,100442.56
2023-04-15T22:14:08.230Z,100443.78
2023-04-15T22:16:35.134Z,100436.16
2023-04-15T22:19:16.274Z,100450.13
2023-04-15T22:21:52.497Z,100450.50
2023-04-15T22:24:40.141Z,100453.19
2023-04-15T22:27:12.839Z,100457.69
2023-04-15T22:32:35.208Z,100464.88
2023-04-15T22:35:03.436Z,100463.94
2023-04-15T22:37:30.822Z,100469.84
2023-04-15T22:40:09.919Z,100471.66
2023-04-15T22:42:39.554Z,100475.47
2023-04-15T22:45:07.370Z,100477.38
2023-04-15T22:47:36.455Z,100476.47
2023-04-15T22:50:03.990Z,100480.16
2023-04-15T22:52:31.438Z,100479.94
2023-04-15T22:54:58.819Z,100492.28
2023-04-15T22:57:25.937Z,100482.44
2023-04-15T22:59:52.831Z,100495.53
2023-04-15T23:02:20.010Z,100493.22
2023-04-15T23:04:46.942Z,100488.06
2023-04-15T23:07:17.017Z,100495.44
2023-04-15T23:09:44.861Z,100498.09
2023-04-15T23:12:13.731Z,100497.28
2023-04-15T23:14:41.002Z,100493.97
2023-04-15T23:17:11.708Z,100504.81
2023-04-15T23:19:38.728Z,100496.63
2023-04-15T23:22:07.083Z,100499.94
2023-04-15T23:24:33.941Z,100505.00
2023-04-15T23:27:01.498Z,100502.34
2023-04-15T23:29:28.525Z,100500.31
2023-04-15T23:31:55.589Z,100508.84
2023-04-15T23:34:22.437Z,100501.69
2023-04-15T23:36:49.580Z,100501.50
2023-04-15T23:39:17.076Z,100499.47
2023-04-15T23:41:44.145Z,100493.84
2023-04-15T23:44:11.627Z,100497.16
2023-04-15T23:46:39.329Z,100496.16
2023-04-15T23:49:09.487Z,100496.72
2023-04-15T23:51:52.152Z,100490.44
2023-04-15T23:57:06.978Z,100496.97
2023-04-15T23:59:45.657Z,100500.47
